sensor_id;sensor_type;location;lat;lon;timestamp;P1;durP1;ratioP1;P2;durP2;ratioP2
57627;SDS011;43451;49.060;10.616;2024-03-08T00:00:42;32.20;;;14.80;;
57627;SDS011;43451;49.060;10.616;2024-03-08T00:03:08;28.80;;;14.32;;
57627;SDS011;43451;49.060;10.616;2024-03-08T00:05:35;29.13;;;14.75;;
57627;SDS011;43451;49.060;10.616;2024-03-08T00:08:01;29.23;;;14.13;;
57627;SDS011;43451;49.060;10.616;2024-03-08T00:10:26;28.42;;;14.48;;
57627;SDS011;43451;49.060;10.616;2024-03-08T00:12:53;26.60;;;14.17;;
57627;SDS011;43451;49.060;10.616;2024-03-08T00:15:19;28.27;;;13.85;;
57627;SDS011;43451;49.060;10.616;2024-03-08T00:17:48;29.48;;;14.63;;
57627;SDS011;43451;49.060;10.616;2024-03-08T00:20:13;27.30;;;13.98;;
57627;SDS011;43451;49.060;10.616;2024-03-08T00:22:39;26.48;;;14.13;;
57627;SDS011;43451;49.060;10.616;2024-03-08T00:25:06;28.77;;;14.52;;
57627;SDS011;43451;49.060;10.616;2024-03-08T00:27:35;29.38;;;14.07;;
57627;SDS011;43451;49.060;10.616;2024-03-08T00:30:03;26.15;;;13.98;;
57627;SDS011;43451;49.060;10.616;2024-03-08T00:32:30;28.08;;;13.90;;
57627;SDS011;43451;49.060;10.616;2024-03-08T00:34:56;28.83;;;13.95;;
57627;SDS011;43451;49.060;10.616;2024-03-08T00:37:22;28.27;;;13.35;;
57627;SDS011;43451;49.060;10.616;2024-03-08T00:39:51;30.25;;;15.07;;
57627;SDS011;43451;49.060;10.616;2024-03-08T00:42:17;28.15;;;13.88;;
57627;SDS011;43451;49.060;10.616;2024-03-08T00:44:44;26.17;;;13.82;;
57627;SDS011;43451;49.060;10.616;2024-03-08T00:47:10;30.35;;;13.82;;
57627;SDS011;43451;49.060;10.616;2024-03-08T00:49:36;26.40;;;13.85;;
57627;SDS011;43451;49.060;10.616;2024-03-08T00:52:03;29.17;;;14.47;;
57627;SDS011;43451;49.060;10.616;2024-03-08T00:54:32;32.75;;;14.27;;
57627;SDS011;43451;49.060;10.616;2024-03-08T00:56:57;29.08;;;14.48;;
57627;SDS011;43451;49.060;10.616;2024-03-08T00:59:23;27.60;;;13.77;;
57627;SDS011;43451;49.060;10.616;2024-03-08T01:01:49;29.45;;;13.80;;
57627;SDS011;43451;49.060;10.616;2024-03-08T01:04:14;27.55;;;13.45;;
57627;SDS011;43451;49.060;10.616;2024-03-08T01:06:40;29.65;;;14.13;;
57627;SDS011;43451;49.060;10.616;2024-03-08T01:09:05;29.35;;;13.77;;
57627;SDS011;43451;49.060;10.616;2024-03-08T01:11:34;32.00;;;14.73;;
57627;SDS011;43451;49.060;10.616;2024-03-08T01:14:00;28.90;;;13.75;;
57627;SDS011;43451;49.060;10.616;2024-03-08T01:16:25;29.73;;;13.27;;
57627;SDS011;43451;49.060;10.616;2024-03-08T01:18:50;25.77;;;13.25;;
57627;SDS011;43451;49.060;10.616;2024-03-08T01:21:16;28.75;;;14.45;;
57627;SDS011;43451;49.060;10.616;2024-03-08T01:23:43;29.05;;;13.68;;
57627;SDS011;43451;49.060;10.616;2024-03-08T01:26:08;29.20;;;13.93;;
57627;SDS011;43451;49.060;10.616;2024-03-08T01:28:34;30.75;;;14.77;;
57627;SDS011;43451;49.060;10.616;2024-03-08T01:31:00;31.45;;;14.90;;
57627;SDS011;43451;49.060;10.616;2024-03-08T01:33:26;33.03;;;15.05;;
57627;SDS011;43451;49.060;10.616;2024-03-08T01:35:52;29.98;;;14.35;;
57627;SDS011;43451;49.060;10.616;2024-03-08T01:38:18;30.70;;;14.65;;
57627;SDS011;43451;49.060;10.616;2024-03-08T01:40:46;28.58;;;14.23;;
57627;SDS011;43451;49.060;10.616;2024-03-08T01:43:27;29.60;;;13.70;;
57627;SDS011;43451;49.060;10.616;2024-03-08T01:45:54;27.80;;;13.23;;
57627;SDS011;43451;49.060;10.616;2024-03-08T01:48:24;30.50;;;14.70;;
57627;SDS011;43451;49.060;10.616;2024-03-08T01:50:50;31.42;;;15.23;;
57627;SDS011;43451;49.060;10.616;2024-03-08T01:53:17;27.30;;;13.50;;
57627;SDS011;43451;49.060;10.616;2024-03-08T01:55:44;29.10;;;13.77;;
57627;SDS011;43451;49.060;10.616;2024-03-08T01:58:12;31.58;;;13.73;;
57627;SDS011;43451;49.060;10.616;2024-03-08T02:00:41;28.48;;;13.63;;
57627;SDS011;43451;49.060;10.616;2024-03-08T02:03:11;30.23;;;13.77;;
57627;SDS011;43451;49.060;10.616;2024-03-08T02:05:38;30.40;;;13.65;;
57627;SDS011;43451;49.060;10.616;2024-03-08T02:08:06;31.35;;;13.20;;
57627;SDS011;43451;49.060;10.616;2024-03-08T02:10:33;29.77;;;14.98;;
57627;SDS011;43451;49.060;10.616;2024-03-08T02:13:01;29.85;;;13.85;;
57627;SDS011;43451;49.060;10.616;2024-03-08T02:15:49;29.98;;;14.25;;
57627;SDS011;43451;49.060;10.616;2024-03-08T02:18:20;31.25;;;13.93;;
57627;SDS011;43451;49.060;10.616;2024-03-08T02:20:53;29.67;;;13.68;;
57627;SDS011;43451;49.060;10.616;2024-03-08T02:23:22;30.30;;;14.27;;
57627;SDS011;43451;49.060;10.616;2024-03-08T02:25:48;33.40;;;15.30;;
57627;SDS011;43451;49.060;10.616;2024-03-08T02:28:14;30.50;;;14.88;;
57627;SDS011;43451;49.060;10.616;2024-03-08T02:30:40;32.35;;;15.35;;
57627;SDS011;43451;49.060;10.616;2024-03-08T02:33:06;29.92;;;14.77;;
57627;SDS011;43451;49.060;10.616;2024-03-08T02:35:33;33.53;;;15.38;;
57627;SDS011;43451;49.060;10.616;2024-03-08T02:38:02;31.55;;;14.32;;
57627;SDS011;43451;49.060;10.616;2024-03-08T02:40:29;33.40;;;15.13;;
57627;SDS011;43451;49.060;10.616;2024-03-08T02:42:54;31.08;;;14.10;;
57627;SDS011;43451;49.060;10.616;2024-03-08T02:45:20;31.95;;;14.75;;
57627;SDS011;43451;49.060;10.616;2024-03-08T02:47:45;29.75;;;14.80;;
57627;SDS011;43451;49.060;10.616;2024-03-08T02:50:11;34.17;;;15.93;;
57627;SDS011;43451;49.060;10.616;2024-03-08T02:52:41;32.13;;;15.13;;
57627;SDS011;43451;49.060;10.616;2024-03-08T02:55:07;30.05;;;14.27;;
57627;SDS011;43451;49.060;10.616;2024-03-08T02:57:33;32.00;;;15.63;;
57627;SDS011;43451;49.060;10.616;2024-03-08T02:59:59;28.45;;;14.35;;
57627;SDS011;43451;49.060;10.616;2024-03-08T03:02:24;30.55;;;14.15;;
57627;SDS011;43451;49.060;10.616;2024-03-08T03:04:52;31.63;;;14.18;;
57627;SDS011;43451;49.060;10.616;2024-03-08T03:07:18;31.27;;;14.77;;
57627;SDS011;43451;49.060;10.616;2024-03-08T03:09:44;31.55;;;14.98;;
57627;SDS011;43451;49.060;10.616;2024-03-08T03:12:10;27.98;;;14.38;;
57627;SDS011;43451;49.060;10.616;2024-03-08T03:14:36;28.92;;;14.15;;
57627;SDS011;43451;49.060;10.616;2024-03-08T03:17:03;30.85;;;14.40;;
57627;SDS011;43451;49.060;10.616;2024-03-08T03:19:30;33.38;;;15.07;;
57627;SDS011;43451;49.060;10.616;2024-03-08T03:21:55;32.95;;;15.32;;
57627;SDS011;43451;49.060;10.616;2024-03-08T03:24:21;31.48;;;14.98;;
57627;SDS011;43451;49.060;10.616;2024-03-08T03:26:48;32.70;;;15.02;;
57627;SDS011;43451;49.060;10.616;2024-03-08T03:29:15;26.85;;;14.20;;
57627;SDS011;43451;49.060;10.616;2024-03-08T03:31:42;33.67;;;15.70;;
57627;SDS011;43451;49.060;10.616;2024-03-08T03:34:12;30.58;;;14.55;;
57627;SDS011;43451;49.060;10.616;2024-03-08T03:36:38;29.92;;;15.27;;
57627;SDS011;43451;49.060;10.616;2024-03-08T03:39:08;32.58;;;14.77;;
57627;SDS011;43451;49.060;10.616;2024-03-08T03:41:38;31.30;;;13.95;;
57627;SDS011;43451;49.060;10.616;2024-03-08T03:44:04;30.15;;;15.07;;
57627;SDS011;43451;49.060;10.616;2024-03-08T03:46:32;29.38;;;14.90;;
57627;SDS011;43451;49.060;10.616;2024-03-08T03:48:58;30.98;;;14.55;;
57627;SDS011;43451;49.060;10.616;2024-03-08T03:51:24;29.35;;;14.65;;
57627;SDS011;43451;49.060;10.616;2024-03-08T03:53:49;29.65;;;14.63;;
57627;SDS011;43451;49.060;10.616;2024-03-08T03:56:15;31.08;;;15.00;;
57627;SDS011;43451;49.060;10.616;2024-03-08T03:58:41;27.83;;;13.93;;
57627;SDS011;43451;49.060;10.616;2024-03-08T04:01:07;29.88;;;14.90;;
57627;SDS011;43451;49.060;10.616;2024-03-08T04:03:34;30.35;;;15.32;;
57627;SDS011;43451;49.060;10.616;2024-03-08T04:06:00;33.08;;;15.55;;
57627;SDS011;43451;49.060;10.616;2024-03-08T04:08:27;31.40;;;15.73;;
57627;SDS011;43451;49.060;10.616;2024-03-08T04:10:52;31.00;;;14.85;;
57627;SDS011;43451;49.060;10.616;2024-03-08T04:13:18;31.42;;;15.20;;
57627;SDS011;43451;49.060;10.616;2024-03-08T04:15:45;30.48;;;15.35;;
57627;SDS011;43451;49.060;10.616;2024-03-08T04:20:41;35.63;;;15.02;;
57627;SDS011;43451;49.060;10.616;2024-03-08T04:23:06;33.35;;;15.68;;
57627;SDS011;43451;49.060;10.616;2024-03-08T04:25:32;33.97;;;15.45;;
57627;SDS011;43451;49.060;10.616;2024-03-08T04:27:58;32.30;;;15.30;;
57627;SDS011;43451;49.060;10.616;2024-03-08T04:30:23;33.20;;;15.18;;
57627;SDS011;43451;49.060;10.616;2024-03-08T04:32:49;32.63;;;14.77;;
57627;SDS011;43451;49.060;10.616;2024-03-08T04:35:15;30.75;;;14.35;;
57627;SDS011;43451;49.060;10.616;2024-03-08T04:37:41;29.27;;;15.20;;
57627;SDS011;43451;49.060;10.616;2024-03-08T04:40:06;33.13;;;15.52;;
57627;SDS011;43451;49.060;10.616;2024-03-08T04:42:32;33.92;;;15.00;;
57627;SDS011;43451;49.060;10.616;2024-03-08T04:44:58;30.20;;;15.02;;
57627;SDS011;43451;49.060;10.616;2024-03-08T04:47:24;30.55;;;14.75;;
57627;SDS011;43451;49.060;10.616;2024-03-08T04:49:50;32.25;;;15.25;;
57627;SDS011;43451;49.060;10.616;2024-03-08T04:52:16;32.55;;;14.35;;
57627;SDS011;43451;49.060;10.616;2024-03-08T04:54:41;33.30;;;15.20;;
57627;SDS011;43451;49.060;10.616;2024-03-08T04:57:08;32.00;;;15.63;;
57627;SDS011;43451;49.060;10.616;2024-03-08T04:59:33;32.35;;;16.40;;
57627;SDS011;43451;49.060;10.616;2024-03-08T05:01:59;33.20;;;16.23;;
57627;SDS011;43451;49.060;10.616;2024-03-08T05:04:24;32.67;;;15.25;;
57627;SDS011;43451;49.060;10.616;2024-03-08T05:06:50;32.58;;;15.43;;
57627;SDS011;43451;49.060;10.616;2024-03-08T05:09:15;32.33;;;15.52;;
57627;SDS011;43451;49.060;10.616;2024-03-08T05:11:42;30.33;;;15.07;;
57627;SDS011;43451;49.060;10.616;2024-03-08T05:14:09;33.05;;;16.40;;
57627;SDS011;43451;49.060;10.616;2024-03-08T05:16:35;31.20;;;15.15;;
57627;SDS011;43451;49.060;10.616;2024-03-08T05:19:01;31.25;;;15.57;;
57627;SDS011;43451;49.060;10.616;2024-03-08T05:21:28;31.15;;;15.45;;
57627;SDS011;43451;49.060;10.616;2024-03-08T05:23:56;33.38;;;15.90;;
57627;SDS011;43451;49.060;10.616;2024-03-08T05:26:22;29.58;;;14.90;;
57627;SDS011;43451;49.060;10.616;2024-03-08T05:28:47;32.13;;;16.10;;
57627;SDS011;43451;49.060;10.616;2024-03-08T05:31:20;30.33;;;15.10;;
57627;SDS011;43451;49.060;10.616;2024-03-08T05:33:49;31.40;;;15.50;;
57627;SDS011;43451;49.060;10.616;2024-03-08T05:36:19;36.85;;;15.15;;
57627;SDS011;43451;49.060;10.616;2024-03-08T05:38:44;29.88;;;14.75;;
57627;SDS011;43451;49.060;10.616;2024-03-08T05:41:10;29.50;;;14.82;;
57627;SDS011;43451;49.060;10.616;2024-03-08T05:43:40;31.60;;;15.05;;
57627;SDS011;43451;49.060;10.616;2024-03-08T05:46:06;31.15;;;15.15;;
57627;SDS011;43451;49.060;10.616;2024-03-08T05:48:32;31.45;;;15.32;;
57627;SDS011;43451;49.060;10.616;2024-03-08T05:50:57;30.10;;;14.82;;
57627;SDS011;43451;49.060;10.616;2024-03-08T05:53:23;34.05;;;14.85;;
57627;SDS011;43451;49.060;10.616;2024-03-08T05:55:49;33.30;;;14.75;;
57627;SDS011;43451;49.060;10.616;2024-03-08T05:58:14;31.45;;;15.32;;
57627;SDS011;43451;49.060;10.616;2024-03-08T06:00:40;30.90;;;15.25;;
57627;SDS011;43451;49.060;10.616;2024-03-08T06:03:06;34.60;;;15.13;;
57627;SDS011;43451;49.060;10.616;2024-03-08T06:05:32;31.90;;;15.48;;
57627;SDS011;43451;49.060;10.616;2024-03-08T06:07:57;32.75;;;15.70;;
57627;SDS011;43451;49.060;10.616;2024-03-08T06:10:23;33.10;;;15.70;;
57627;SDS011;43451;49.060;10.616;2024-03-08T06:12:48;30.30;;;15.18;;
57627;SDS011;43451;49.060;10.616;2024-03-08T06:15:14;32.60;;;16.00;;
57627;SDS011;43451;49.060;10.616;2024-03-08T06:17:43;31.25;;;15.00;;
57627;SDS011;43451;49.060;10.616;2024-03-08T06:20:08;29.98;;;14.80;;
57627;SDS011;43451;49.060;10.616;2024-03-08T06:22:38;32.88;;;15.80;;
57627;SDS011;43451;49.060;10.616;2024-03-08T06:25:09;31.80;;;15.63;;
57627;SDS011;43451;49.060;10.616;2024-03-08T06:27:40;40.83;;;19.98;;
57627;SDS011;43451;49.060;10.616;2024-03-08T06:30:07;83.35;;;33.53;;
57627;SDS011;43451;49.060;10.616;2024-03-08T06:32:35;35.10;;;16.40;;
57627;SDS011;43451;49.060;10.616;2024-03-08T06:35:04;28.73;;;14.75;;
57627;SDS011;43451;49.060;10.616;2024-03-08T06:37:34;32.35;;;15.45;;
57627;SDS011;43451;49.060;10.616;2024-03-08T06:40:00;32.63;;;14.93;;
57627;SDS011;43451;49.060;10.616;2024-03-08T06:42:29;37.58;;;17.48;;
57627;SDS011;43451;49.060;10.616;2024-03-08T06:45:00;49.53;;;22.63;;
57627;SDS011;43451;49.060;10.616;2024-03-08T06:47:30;36.97;;;18.27;;
57627;SDS011;43451;49.060;10.616;2024-03-08T06:49:56;32.05;;;16.45;;
57627;SDS011;43451;49.060;10.616;2024-03-08T06:52:21;45.40;;;25.70;;
57627;SDS011;43451;49.060;10.616;2024-03-08T06:54:47;30.27;;;15.57;;
57627;SDS011;43451;49.060;10.616;2024-03-08T06:57:13;31.02;;;15.80;;
57627;SDS011;43451;49.060;10.616;2024-03-08T06:59:39;31.48;;;15.38;;
57627;SDS011;43451;49.060;10.616;2024-03-08T07:02:05;30.45;;;15.50;;
57627;SDS011;43451;49.060;10.616;2024-03-08T07:04:34;28.98;;;14.82;;
57627;SDS011;43451;49.060;10.616;2024-03-08T07:07:06;30.45;;;15.65;;
57627;SDS011;43451;49.060;10.616;2024-03-08T07:09:37;27.17;;;14.07;;
57627;SDS011;43451;49.060;10.616;2024-03-08T07:12:03;32.28;;;14.88;;
57627;SDS011;43451;49.060;10.616;2024-03-08T07:14:30;30.13;;;13.93;;
57627;SDS011;43451;49.060;10.616;2024-03-08T07:16:59;27.63;;;13.55;;
57627;SDS011;43451;49.060;10.616;2024-03-08T07:19:24;26.88;;;13.73;;
57627;SDS011;43451;49.060;10.616;2024-03-08T07:21:50;27.55;;;13.98;;
57627;SDS011;43451;49.060;10.616;2024-03-08T07:24:15;30.75;;;13.98;;
57627;SDS011;43451;49.060;10.616;2024-03-08T07:29:09;28.45;;;13.80;;
57627;SDS011;43451;49.060;10.616;2024-03-08T07:31:34;26.88;;;13.73;;
57627;SDS011;43451;49.060;10.616;2024-03-08T07:34:15;26.92;;;13.18;;
57627;SDS011;43451;49.060;10.616;2024-03-08T07:36:41;28.10;;;13.85;;
57627;SDS011;43451;49.060;10.616;2024-03-08T07:39:07;29.27;;;15.25;;
57627;SDS011;43451;49.060;10.616;2024-03-08T07:41:39;42.40;;;24.20;;
57627;SDS011;43451;49.060;10.616;2024-03-08T07:44:08;28.27;;;15.35;;
57627;SDS011;43451;49.060;10.616;2024-03-08T07:46:34;28.80;;;14.82;;
57627;SDS011;43451;49.060;10.616;2024-03-08T07:49:00;29.60;;;14.85;;
57627;SDS011;43451;49.060;10.616;2024-03-08T07:51:25;29.80;;;15.07;;
57627;SDS011;43451;49.060;10.616;2024-03-08T07:53:51;28.13;;;13.73;;
57627;SDS011;43451;49.060;10.616;2024-03-08T07:56:17;30.45;;;14.13;;
57627;SDS011;43451;49.060;10.616;2024-03-08T07:58:44;26.92;;;14.15;;
57627;SDS011;43451;49.060;10.616;2024-03-08T08:01:18;28.77;;;13.50;;
57627;SDS011;43451;49.060;10.616;2024-03-08T08:03:45;36.47;;;14.05;;
57627;SDS011;43451;49.060;10.616;2024-03-08T08:06:10;28.45;;;13.05;;
57627;SDS011;43451;49.060;10.616;2024-03-08T08:08:43;30.17;;;13.63;;
57627;SDS011;43451;49.060;10.616;2024-03-08T08:11:10;32.50;;;14.35;;
57627;SDS011;43451;49.060;10.616;2024-03-08T08:13:36;30.42;;;13.88;;
57627;SDS011;43451;49.060;10.616;2024-03-08T08:16:02;32.22;;;14.88;;
57627;SDS011;43451;49.060;10.616;2024-03-08T08:18:29;29.02;;;14.32;;
57627;SDS011;43451;49.060;10.616;2024-03-08T08:20:55;31.60;;;14.77;;
57627;SDS011;43451;49.060;10.616;2024-03-08T08:23:21;30.17;;;14.02;;
57627;SDS011;43451;49.060;10.616;2024-03-08T08:25:46;29.65;;;13.65;;
57627;SDS011;43451;49.060;10.616;2024-03-08T08:28:18;29.55;;;14.05;;
57627;SDS011;43451;49.060;10.616;2024-03-08T08:30:44;30.25;;;13.73;;
57627;SDS011;43451;49.060;10.616;2024-03-08T08:33:10;30.17;;;13.63;;
57627;SDS011;43451;49.060;10.616;2024-03-08T08:35:36;28.30;;;14.40;;
57627;SDS011;43451;49.060;10.616;2024-03-08T08:38:03;28.55;;;14.43;;
57627;SDS011;43451;49.060;10.616;2024-03-08T08:40:29;31.10;;;14.20;;
57627;SDS011;43451;49.060;10.616;2024-03-08T08:42:57;30.05;;;14.23;;
57627;SDS011;43451;49.060;10.616;2024-03-08T08:45:25;31.88;;;14.20;;
57627;SDS011;43451;49.060;10.616;2024-03-08T08:47:51;30.73;;;13.98;;
57627;SDS011;43451;49.060;10.616;2024-03-08T08:50:17;29.85;;;14.10;;
57627;SDS011;43451;49.060;10.616;2024-03-08T08:52:48;32.10;;;14.15;;
57627;SDS011;43451;49.060;10.616;2024-03-08T08:55:14;31.15;;;14.63;;
57627;SDS011;43451;49.060;10.616;2024-03-08T08:57:40;30.30;;;14.20;;
57627;SDS011;43451;49.060;10.616;2024-03-08T09:00:07;32.78;;;14.20;;
57627;SDS011;43451;49.060;10.616;2024-03-08T09:02:35;30.05;;;13.95;;
57627;SDS011;43451;49.060;10.616;2024-03-08T09:05:00;29.13;;;14.90;;
57627;SDS011;43451;49.060;10.616;2024-03-08T09:07:26;28.70;;;13.65;;
57627;SDS011;43451;49.060;10.616;2024-03-08T09:09:53;30.33;;;14.02;;
57627;SDS011;43451;49.060;10.616;2024-03-08T09:12:22;30.02;;;14.50;;
57627;SDS011;43451;49.060;10.616;2024-03-08T09:14:48;27.75;;;14.43;;
57627;SDS011;43451;49.060;10.616;2024-03-08T09:17:14;27.13;;;13.30;;
57627;SDS011;43451;49.060;10.616;2024-03-08T09:19:43;29.45;;;13.40;;
57627;SDS011;43451;49.060;10.616;2024-03-08T09:22:08;27.98;;;13.10;;
57627;SDS011;43451;49.060;10.616;2024-03-08T09:24:36;28.92;;;13.77;;
57627;SDS011;43451;49.060;10.616;2024-03-08T09:27:02;28.60;;;13.70;;
57627;SDS011;43451;49.060;10.616;2024-03-08T09:29:28;27.58;;;13.20;;
57627;SDS011;43451;49.060;10.616;2024-03-08T09:31:54;27.63;;;13.93;;
57627;SDS011;43451;49.060;10.616;2024-03-08T09:34:19;26.30;;;13.18;;
57627;SDS011;43451;49.060;10.616;2024-03-08T09:36:45;26.10;;;13.27;;
57627;SDS011;43451;49.060;10.616;2024-03-08T09:39:10;24.13;;;12.57;;
57627;SDS011;43451;49.060;10.616;2024-03-08T09:41:42;28.85;;;13.13;;
57627;SDS011;43451;49.060;10.616;2024-03-08T09:44:13;26.45;;;13.10;;
57627;SDS011;43451;49.060;10.616;2024-03-08T09:46:39;28.20;;;13.25;;
57627;SDS011;43451;49.060;10.616;2024-03-08T09:49:06;26.00;;;12.55;;
57627;SDS011;43451;49.060;10.616;2024-03-08T09:51:33;30.85;;;14.25;;
57627;SDS011;43451;49.060;10.616;2024-03-08T09:54:03;28.23;;;14.02;;
57627;SDS011;43451;49.060;10.616;2024-03-08T09:56:31;29.30;;;14.30;;
57627;SDS011;43451;49.060;10.616;2024-03-08T09:59:01;25.45;;;13.68;;
57627;SDS011;43451;49.060;10.616;2024-03-08T10:01:29;30.33;;;15.00;;
57627;SDS011;43451;49.060;10.616;2024-03-08T10:03:55;29.20;;;14.90;;
57627;SDS011;43451;49.060;10.616;2024-03-08T10:06:23;28.13;;;14.20;;
57627;SDS011;43451;49.060;10.616;2024-03-08T10:08:50;28.33;;;14.27;;
57627;SDS011;43451;49.060;10.616;2024-03-08T10:11:19;29.95;;;14.38;;
57627;SDS011;43451;49.060;10.616;2024-03-08T10:13:45;28.30;;;14.40;;
57627;SDS011;43451;49.060;10.616;2024-03-08T10:16:12;27.52;;;14.15;;
57627;SDS011;43451;49.060;10.616;2024-03-08T10:18:38;26.88;;;14.48;;
57627;SDS011;43451;49.060;10.616;2024-03-08T10:21:07;31.40;;;14.55;;
57627;SDS011;43451;49.060;10.616;2024-03-08T10:23:36;29.60;;;14.40;;
57627;SDS011;43451;49.060;10.616;2024-03-08T10:28:41;26.58;;;13.77;;
57627;SDS011;43451;49.060;10.616;2024-03-08T10:31:13;27.25;;;14.25;;
57627;SDS011;43451;49.060;10.616;2024-03-08T10:33:40;28.42;;;14.32;;
57627;SDS011;43451;49.060;10.616;2024-03-08T10:36:06;29.58;;;13.98;;
57627;SDS011;43451;49.060;10.616;2024-03-08T10:38:35;28.00;;;14.55;;
57627;SDS011;43451;49.060;10.616;2024-03-08T10:41:02;27.50;;;14.43;;
57627;SDS011;43451;49.060;10.616;2024-03-08T10:43:31;26.77;;;13.75;;
57627;SDS011;43451;49.060;10.616;2024-03-08T10:46:11;26.73;;;15.15;;
57627;SDS011;43451;49.060;10.616;2024-03-08T10:48:43;26.80;;;13.75;;
57627;SDS011;43451;49.060;10.616;2024-03-08T10:51:11;31.85;;;14.27;;
57627;SDS011;43451;49.060;10.616;2024-03-08T10:53:37;27.90;;;13.82;;
57627;SDS011;43451;49.060;10.616;2024-03-08T10:56:07;23.45;;;12.95;;
57627;SDS011;43451;49.060;10.616;2024-03-08T10:58:35;26.17;;;13.50;;
57627;SDS011;43451;49.060;10.616;2024-03-08T11:01:02;25.48;;;14.07;;
57627;SDS011;43451;49.060;10.616;2024-03-08T11:08:48;25.45;;;12.98;;
57627;SDS011;43451;49.060;10.616;2024-03-08T11:11:25;23.13;;;12.43;;
57627;SDS011;43451;49.060;10.616;2024-03-08T11:13:52;24.30;;;12.35;;
57627;SDS011;43451;49.060;10.616;2024-03-08T11:18:53;23.85;;;13.02;;
57627;SDS011;43451;49.060;10.616;2024-03-08T11:21:19;22.55;;;12.15;;
57627;SDS011;43451;49.060;10.616;2024-03-08T11:24:00;27.00;;;14.00;;
57627;SDS011;43451;49.060;10.616;2024-03-08T11:26:27;21.83;;;12.13;;
57627;SDS011;43451;49.060;10.616;2024-03-08T11:29:22;22.75;;;11.90;;
57627;SDS011;43451;49.060;10.616;2024-03-08T11:32:10;23.40;;;12.27;;
57627;SDS011;43451;49.060;10.616;2024-03-08T11:34:47;25.00;;;12.82;;
57627;SDS011;43451;49.060;10.616;2024-03-08T11:37:17;23.15;;;11.32;;
57627;SDS011;43451;49.060;10.616;2024-03-08T11:39:51;22.27;;;11.73;;
57627;SDS011;43451;49.060;10.616;2024-03-08T11:42:18;22.83;;;12.57;;
57627;SDS011;43451;49.060;10.616;2024-03-08T11:44:45;24.17;;;12.10;;
57627;SDS011;43451;49.060;10.616;2024-03-08T11:47:11;21.70;;;12.38;;
57627;SDS011;43451;49.060;10.616;2024-03-08T11:49:40;23.45;;;12.88;;
57627;SDS011;43451;49.060;10.616;2024-03-08T11:52:15;21.55;;;12.82;;
57627;SDS011;43451;49.060;10.616;2024-03-08T11:54:51;26.65;;;13.88;;
57627;SDS011;43451;49.060;10.616;2024-03-08T11:57:22;25.33;;;13.48;;
57627;SDS011;43451;49.060;10.616;2024-03-08T11:59:55;24.15;;;12.45;;
57627;SDS011;43451;49.060;10.616;2024-03-08T12:02:31;21.55;;;12.82;;
57627;SDS011;43451;49.060;10.616;2024-03-08T12:04:57;23.58;;;12.40;;
57627;SDS011;43451;49.060;10.616;2024-03-08T12:07:25;23.02;;;12.57;;
57627;SDS011;43451;49.060;10.616;2024-03-08T12:12:43;19.52;;;11.73;;
57627;SDS011;43451;49.060;10.616;2024-03-08T12:15:13;22.02;;;11.50;;
57627;SDS011;43451;49.060;10.616;2024-03-08T12:17:40;21.33;;;12.43;;
57627;SDS011;43451;49.060;10.616;2024-03-08T12:20:23;21.70;;;12.30;;
57627;SDS011;43451;49.060;10.616;2024-03-08T12:22:51;17.88;;;10.63;;
57627;SDS011;43451;49.060;10.616;2024-03-08T12:25:18;20.20;;;10.90;;
57627;SDS011;43451;49.060;10.616;2024-03-08T12:27:45;19.13;;;10.98;;
57627;SDS011;43451;49.060;10.616;2024-03-08T12:30:21;17.80;;;10.88;;
57627;SDS011;43451;49.060;10.616;2024-03-08T12:32:59;19.77;;;11.40;;
57627;SDS011;43451;49.060;10.616;2024-03-08T12:35:26;19.27;;;10.57;;
57627;SDS011;43451;49.060;10.616;2024-03-08T12:37:53;18.85;;;10.75;;
57627;SDS011;43451;49.060;10.616;2024-03-08T12:40:26;15.63;;;9.82;;
57627;SDS011;43451;49.060;10.616;2024-03-08T12:42:54;17.30;;;9.65;;
57627;SDS011;43451;49.060;10.616;2024-03-08T12:45:21;17.67;;;10.17;;
57627;SDS011;43451;49.060;10.616;2024-03-08T12:47:49;23.27;;;12.40;;
57627;SDS011;43451;49.060;10.616;2024-03-08T12:50:15;17.05;;;10.30;;
57627;SDS011;43451;49.060;10.616;2024-03-08T12:52:42;18.50;;;10.60;;
57627;SDS011;43451;49.060;10.616;2024-03-08T12:55:07;19.02;;;10.80;;
57627;SDS011;43451;49.060;10.616;2024-03-08T12:57:34;18.20;;;10.70;;
57627;SDS011;43451;49.060;10.616;2024-03-08T13:00:02;20.40;;;10.77;;
57627;SDS011;43451;49.060;10.616;2024-03-08T13:02:29;19.25;;;10.32;;
57627;SDS011;43451;49.060;10.616;2024-03-08T13:04:57;17.48;;;10.55;;
57627;SDS011;43451;49.060;10.616;2024-03-08T13:07:23;21.48;;;11.57;;
57627;SDS011;43451;49.060;10.616;2024-03-08T13:09:53;18.25;;;9.77;;
57627;SDS011;43451;49.060;10.616;2024-03-08T13:12:23;18.80;;;11.00;;
57627;SDS011;43451;49.060;10.616;2024-03-08T13:14:49;21.10;;;11.55;;
57627;SDS011;43451;49.060;10.616;2024-03-08T13:17:15;17.95;;;9.75;;
57627;SDS011;43451;49.060;10.616;2024-03-08T13:19:43;22.58;;;11.82;;
57627;SDS011;43451;49.060;10.616;2024-03-08T13:22:09;20.20;;;10.73;;
57627;SDS011;43451;49.060;10.616;2024-03-08T13:24:39;23.10;;;11.57;;
57627;SDS011;43451;49.060;10.616;2024-03-08T13:27:07;17.88;;;10.70;;
57627;SDS011;43451;49.060;10.616;2024-03-08T13:29:53;15.82;;;9.43;;
57627;SDS011;43451;49.060;10.616;2024-03-08T13:32:19;20.05;;;9.82;;
57627;SDS011;43451;49.060;10.616;2024-03-08T13:34:47;17.48;;;9.77;;
57627;SDS011;43451;49.060;10.616;2024-03-08T13:37:16;19.02;;;11.20;;
57627;SDS011;43451;49.060;10.616;2024-03-08T13:39:42;16.33;;;9.82;;
57627;SDS011;43451;49.060;10.616;2024-03-08T13:42:11;16.08;;;9.73;;
57627;SDS011;43451;49.060;10.616;2024-03-08T13:44:50;15.55;;;8.95;;
57627;SDS011;43451;49.060;10.616;2024-03-08T13:47:16;16.48;;;9.93;;
57627;SDS011;43451;49.060;10.616;2024-03-08T13:49:42;17.98;;;9.55;;
57627;SDS011;43451;49.060;10.616;2024-03-08T13:52:11;25.83;;;13.05;;
57627;SDS011;43451;49.060;10.616;2024-03-08T13:54:41;18.17;;;9.82;;
57627;SDS011;43451;49.060;10.616;2024-03-08T13:57:07;17.20;;;10.07;;
57627;SDS011;43451;49.060;10.616;2024-03-08T13:59:33;31.27;;;14.27;;
57627;SDS011;43451;49.060;10.616;2024-03-08T14:02:00;23.23;;;11.07;;
57627;SDS011;43451;49.060;10.616;2024-03-08T14:04:27;17.88;;;10.05;;
57627;SDS011;43451;49.060;10.616;2024-03-08T14:06:53;22.63;;;12.00;;
57627;SDS011;43451;49.060;10.616;2024-03-08T14:09:28;15.07;;;8.85;;
57627;SDS011;43451;49.060;10.616;2024-03-08T14:11:54;21.60;;;11.13;;
57627;SDS011;43451;49.060;10.616;2024-03-08T14:14:21;24.98;;;10.50;;
57627;SDS011;43451;49.060;10.616;2024-03-08T14:16:48;13.77;;;8.32;;
57627;SDS011;43451;49.060;10.616;2024-03-08T14:19:17;15.15;;;9.07;;
57627;SDS011;43451;49.060;10.616;2024-03-08T14:21:44;18.13;;;10.07;;
57627;SDS011;43451;49.060;10.616;2024-03-08T14:24:16;15.13;;;8.75;;
57627;SDS011;43451;49.060;10.616;2024-03-08T14:26:42;15.32;;;8.27;;
57627;SDS011;43451;49.060;10.616;2024-03-08T14:29:08;14.20;;;8.25;;